ADDS METAR Data INFO
IDs: Format: Raw Decoded Include TAF

Data at: 0915 UTC 20 Jan 2018

KMTH 200853Z AUTO 03007KT 10SM CLR 17/13 A3017 RMK AO2 SLP215 T01670133 55011